Latest Weather Observations for Laverton

IDV60801

Issued at 12:32 am EST Sunday 24 September 2017 (issued every 30 minutes, with the page automatically refreshed every 10 minutes)

About weather observations | Map of weather stations | Latest weather observations for VIC | Other Formats
Station Details ID: 087031 Name: LAVERTON RAAF Lat: -37.86 Lon: 144.76 Height: 20.1 m
Data from the previous 72 hours. | See also: Recent months at Laverton
Date/Time
EST
Temp
°C
App
Temp
°C
Dew
Point
°C
Rel
Hum
%
Delta-T
°C
Wind Press
QNH
hPa
Press
MSL
hPa
Rain since
9am
mm
Dir  Spd
km/h
Gust
km/h
Spd
kts
Gust
kts
24/12:30am 13.7 11.3 7.0 64 3.3 NNW 9 17 5 9 999.0 999.0 0.0
24/12:00am 14.2 11.2 7.9 66 3.1 NNW 13 19 7 10 998.9 998.9 0.0
 
Date/Time
EST
Temp
°C
App
Temp
°C
Dew
Point
°C
Rel
Hum
%
Delta-T
°C
Wind Press
QNH
hPa
Press
MSL
hPa
Rain since
9am
mm
Dir  Spd
km/h
Gust
km/h
Spd
kts
Gust
kts
23/11:30pm 13.6 10.5 8.7 72 2.5 NW 15 19 8 10 998.8 998.8 0.0
23/11:00pm 14.7 10.9 9.1 69 2.9 WNW 19 24 10 13 998.8 998.8 0.0
23/10:30pm 14.7 11.5 10.1 74 2.4 WNW 17 22 9 12 998.7 998.7 0.0
23/10:00pm 13.7 10.9 9.9 78 2.0 NW 15 19 8 10 998.9 998.9 0.0
23/09:30pm 13.6 11.9 9.8 78 2.0 NNW 9 13 5 7 998.8 998.8 0.0
23/09:00pm 14.5 13.2 10.1 75 2.3 NNW 7 11 4 6 998.8 998.8 0.0
23/08:30pm 15.1 13.1 10.3 73 2.5 NW 11 13 6 7 998.6 998.6 0.0
23/08:00pm 15.7 13.0 10.2 70 2.9 WNW 15 20 8 11 998.2 998.2 0.0
23/07:30pm 16.1 13.0 10.2 68 3.1 W 17 22 9 12 997.8 997.8 0.0
23/07:00pm 16.2 12.7 10.1 67 3.2 W 19 28 10 15 997.3 997.3 0.0
23/06:30pm 16.4 12.5 9.6 64 3.5 W 20 33 11 18 997.0 997.0 0.0
23/06:02pm 17.0 11.6 9.4 61 4.0 WSW 28 50 15 27 995.8 995.8 0.0
23/06:00pm 17.0 12.0 9.7 62 3.9 WSW 26 43 14 23 995.7 995.7 0.0
23/05:34pm 16.5 10.1 10.8 69 3.0 SW 35 54 19 29 994.8 994.8 0.0
23/05:30pm 16.6 9.4 10.7 68 3.1 SW 39 54 21 29 994.6 994.6 0.0
23/05:00pm 17.3 10.0 11.6 69 3.1 SW 41 59 22 32 992.8 992.8 0.0
23/04:30pm 20.3 10.8 11.2 56 5.0 WSW 52 74 28 40 991.2 991.2 0.0
23/04:29pm 21.0 11.1 11.1 53 5.5 W 54 74 29 40 991.1 991.1 0.0
23/04:27pm 23.4 13.8 12.1 49 6.4 W 54 74 29 40 991.0 991.0 0.0
23/04:02pm 29.9 23.6 7.2 24 12.3 WNW 30 57 16 31 989.2 989.2 0.0
23/04:00pm 30.0 24.0 7.2 24 12.4 NW 28 39 15 21 989.2 989.2 0.0
23/03:30pm 30.3 23.3 6.9 23 12.6 NW 33 46 18 25 988.7 988.7 0.0
23/03:06pm 31.2 24.0 7.6 23 12.9 NW 35 54 19 29 988.8 988.8 0.0
23/03:00pm 31.3 24.0 7.1 22 13.3 NW 35 50 19 27 989.0 989.0 0.0
23/02:30pm 30.8 22.5 6.0 21 13.2 NNW 39 54 21 29 988.8 988.8 0.0
23/02:23pm 30.5 22.3 6.4 22 12.9 NNW 39 57 21 31 989.0 989.0 0.0
23/02:00pm 30.1 23.1 6.1 22 12.9 NNW 32 48 17 26 989.3 989.3 0.0
23/01:40pm 28.9 24.3 5.7 23 12.1 NW 19 48 10 26 989.8 989.8 0.0
23/01:30pm 24.8 22.7 9.9 39 8.2 WNW 11 15 6 8 990.1 990.1 0.0
23/01:00pm 22.0 20.5 12.0 53 5.7 SSW 11 17 6 9 990.8 990.8 0.0
23/12:30pm 22.7 19.3 11.1 48 6.4 S 20 30 11 16 991.5 991.5 0.0
23/12:19pm 23.3 20.0 11.0 46 6.8 SSW 19 28 10 15 991.8 991.8 0.0
23/12:00pm 28.5 21.8 3.4 20 12.7 N 28 41 15 22 991.6 991.6 0.0
23/11:30am 27.9 21.4 2.9 20 12.4 N 26 44 14 24 992.2 992.2 0.0
23/11:00am 26.4 19.6 3.0 22 11.6 NNE 28 43 15 23 993.0 993.0 0.0
23/10:42am 25.5 18.4 1.6 21 11.4 N 28 46 15 25 993.8 993.8 0.0
23/10:30am 25.2 18.0 0.7 20 11.4 N 28 43 15 23 994.3 994.3 0.0
23/10:00am 25.1 17.8 -0.1 19 11.7 N 28 41 15 22 995.7 995.7 0.0
23/09:44am 24.8 17.4 -0.4 19 11.5 NNW 28 46 15 25 996.2 996.2 0.0
23/09:30am 24.9 18.9 1.1 21 11.2 NNW 22 37 12 20 996.6 996.6 0.0
23/09:00am 22.7 17.1 1.1 24 10.0 N 20 33 11 18 996.7 996.7 0.0
23/08:30am 20.8 15.1 0.6 26 9.1 N 20 30 11 16 997.4 997.4 0.0
23/08:00am 20.3 15.6 0.7 27 8.9 N 15 24 8 13 997.9 997.9 0.0
23/07:30am 20.3 15.1 0.2 26 8.9 N 17 24 9 13 998.0 998.0 0.0
23/07:00am 20.1 13.6 0.0 26 9.0 N 24 41 13 22 997.8 997.8 0.0
23/06:30am 20.3 12.2 -0.3 25 9.1 N 32 46 17 25 997.9 997.9 0.0
23/06:08am 20.6 12.9 -0.1 25 9.2 N 30 48 16 26 997.7 997.7 0.0
23/06:00am 20.5 12.8 -0.2 25 9.2 N 30 43 16 23 997.8 997.8 0.0
23/05:30am 20.2 13.1 1.1 28 8.6 N 28 41 15 22 997.8 997.8 0.0
23/05:00am 20.1 13.1 2.0 30 8.4 NNE 28 43 15 23 997.6 997.6 0.0
23/04:47am 20.4 13.4 1.8 29 8.5 N 28 46 15 25 997.8 997.8 0.0
23/04:30am 20.6 13.7 2.4 30 8.5 N 28 43 15 23 998.2 998.2 0.0
23/04:00am 20.8 14.7 2.6 30 8.6 N 24 35 13 19 999.0 999.0 0.0
23/03:30am 21.1 16.0 2.9 30 8.6 N 19 28 10 15 999.4 999.4 0.0
23/03:00am 20.9 15.7 3.6 32 8.3 NNW 20 32 11 17 1000.7 1000.7 0.0
23/02:30am 21.9 15.9 3.1 29 9.0 N 24 37 13 20 1000.3 1000.3 0.0
23/02:00am 21.9 15.9 3.6 30 8.9 N 24 39 13 21 1000.8 1000.8 0.0
23/01:57am 21.4 16.1 3.1 30 8.7 N 20 30 11 16 1001.0 1001.0 0.0
23/01:30am 16.4 13.9 6.5 52 4.9 NNE 9 11 5 6 1002.0 1002.0 0.0
23/01:00am 17.4 16.7 6.9 50 5.2 CALM 0 0 0 0 1002.5 1002.5 0.0
23/12:30am 17.3 16.2 7.1 51 5.1 ENE 2 6 1 3 1002.8 1002.8 0.0
23/12:00am 17.8 15.8 7.2 50 5.3 NE 7 11 4 6 1002.9 1002.9 0.0
 
Date/Time
EST
Temp
°C
App
Temp
°C
Dew
Point
°C
Rel
Hum
%
Delta-T
°C
Wind Press
QNH
hPa
Press
MSL
hPa
Rain since
9am
mm
Dir  Spd
km/h
Gust
km/h
Spd
kts
Gust
kts
22/11:30pm 18.2 14.9 7.9 51 5.3 NNE 15 20 8 11 1003.3 1003.3 0.0
22/11:00pm 18.6 14.9 8.0 50 5.5 NNE 17 22 9 12 1003.7 1003.7 0.0
22/10:30pm 18.8 15.6 8.5 51 5.3 NNE 15 20 8 11 1003.9 1003.9 0.0
22/10:00pm 17.8 15.1 8.9 56 4.6 NE 13 17 7 9 1004.2 1004.2 0.0
22/09:30pm 18.4 14.9 8.9 54 4.9 NNE 17 20 9 11 1004.5 1004.5 0.0
22/09:00pm 19.0 15.2 9.2 53 5.2 NNE 19 24 10 13 1004.9 1004.9 0.0
22/08:30pm 20.1 16.6 8.8 48 5.9 NNE 17 28 9 15 1005.1 1005.1 0.0
22/08:00pm 20.4 16.5 8.7 47 6.2 NNE 19 24 10 13 1005.1 1005.1 0.0
22/07:30pm 21.1 17.2 8.7 45 6.5 N 19 26 10 14 1005.2 1005.2 0.0
22/07:00pm 21.4 17.5 8.7 44 6.7 N 19 26 10 14 1005.0 1005.0 0.0
22/06:30pm 22.1 18.1 8.9 43 7.0 N 20 33 11 18 1004.8 1004.8 0.0
22/06:00pm 22.8 18.8 8.9 41 7.5 N 20 28 11 15 1004.9 1004.9 0.0
22/05:30pm 23.5 19.7 7.6 36 8.3 N 17 24 9 13 1004.7 1004.7 0.0
22/05:00pm 23.8 20.1 7.8 36 8.5 N 17 24 9 13 1004.8 1004.8 0.0
22/04:30pm 22.9 22.0 11.3 48 6.5 SSW 7 13 4 7 1005.1 1005.1 0.0
22/04:00pm 24.4 22.6 10.7 42 7.7 SW 11 15 6 8 1005.0 1005.0 0.0
22/03:30pm 23.7 21.7 10.0 42 7.5 SW 11 17 6 9 1004.9 1004.9 0.0
22/03:00pm 21.0 19.4 10.2 50 5.9 SE 9 13 5 7 1005.0 1005.0 0.0
22/02:30pm 19.5 17.0 9.7 53 5.2 SE 13 19 7 10 1005.2 1005.2 0.0
22/02:00pm 20.3 17.5 10.1 52 5.5 SE 15 17 8 9 1005.5 1005.5 0.0
22/01:30pm 20.7 18.3 9.9 50 5.8 SE 13 19 7 10 1005.8 1005.8 0.0
22/01:00pm 21.0 19.2 10.8 52 5.6 SE 11 15 6 8 1006.1 1006.1 0.0
22/12:30pm 20.2 18.5 10.0 52 5.5 SSE 9 15 5 8 1006.7 1006.7 0.0
22/12:00pm 19.4 17.2 10.7 57 4.7 SE 13 19 7 10 1007.0 1007.0 0.0
22/11:30am 21.8 18.5 6.5 37 7.8 NE 13 24 7 13 1007.6 1007.6 0.0
22/11:00am 20.1 17.6 8.4 47 6.1 ENE 11 17 6 9 1008.3 1008.4 0.0
22/10:30am 19.0 15.9 8.9 52 5.3 NE 15 22 8 12 1008.7 1008.8 0.0
22/10:00am 17.5 14.5 9.2 58 4.3 NE 15 20 8 11 1009.1 1009.2 0.0
22/09:30am 16.6 14.4 9.3 62 3.8 NE 11 17 6 9 1009.4 1009.5 0.0
22/09:00am 15.7 13.4 10.5 71 2.8 ENE 13 19 7 10 1009.4 1009.5 0.0
22/08:30am 14.7 12.9 10.7 77 2.1 ENE 11 17 6 9 1009.6 1009.7 0.0
22/08:22am 14.6 12.7 10.4 76 2.2 NE 11 17 6 9 1009.6 1009.7 0.0
22/08:00am 13.9 13.1 11.1 83 1.5 ESE 6 11 3 6 1009.7 1009.8 0.0
22/07:55am 13.6 12.9 11.3 86 1.2 ESE 6 7 3 4 1009.7 1009.8 0.0
22/07:30am 12.2 12.5 10.8 91 0.7 CALM 0 0 0 0 1009.8 1009.9 0.0
22/07:00am 11.4 11.5 10.0 91 0.7 CALM 0 0 0 0 1009.8 1009.9 0.0
22/06:30am 11.3 11.3 9.7 90 0.8 CALM 0 4 0 2 1009.7 1009.8 0.0
22/06:00am 11.6 11.5 9.5 87 1.1 CALM 0 0 0 0 1009.7 1009.8 0.0
22/05:30am 12.1 12.1 9.8 86 1.2 CALM 0 0 0 0 1009.9 1010.0 0.0
22/05:00am 12.2 12.3 10.1 87 1.1 CALM 0 0 0 0 1009.8 1009.9 0.0
22/04:30am 12.2 12.2 9.8 85 1.2 CALM 0 0 0 0 1009.5 1009.6 0.0
22/04:00am 12.3 12.3 9.9 85 1.2 CALM 0 0 0 0 1009.7 1009.8 0.0
22/03:30am 12.4 12.5 10.0 85 1.2 CALM 0 4 0 2 1009.9 1010.0 0.0
22/03:00am 12.4 12.5 10.0 85 1.2 CALM 0 0 0 0 1010.2 1010.3 0.0
22/02:30am 12.4 11.3 10.1 86 1.2 ESE 6 7 3 4 1010.5 1010.6 0.0
22/02:00am 12.4 12.5 10.3 87 1.1 CALM 0 0 0 0 1011.1 1011.2 0.0
22/01:30am 12.5 12.3 10.4 87 1.1 ESE 2 6 1 3 1011.5 1011.6 0.0
22/01:00am 12.6 11.3 10.1 85 1.3 ESE 7 11 4 6 1011.9 1011.9 0.0
22/12:30am 12.8 11.1 10.0 83 1.4 SE 9 11 5 6 1012.1 1012.1 0.0
22/12:00am 12.8 11.1 10.0 83 1.4 SE 9 13 5 7 1012.3 1012.3 0.0
 
Date/Time
EST
Temp
°C
App
Temp
°C
Dew
Point
°C
Rel
Hum
%
Delta-T
°C
Wind Press
QNH
hPa
Press
MSL
hPa
Rain since
9am
mm
Dir  Spd
km/h
Gust
km/h
Spd
kts
Gust
kts
21/11:30pm 12.9 11.8 10.6 86 1.2 SSE 7 11 4 6 1012.3 1012.3 0.0
21/11:00pm 13.0 11.9 10.7 86 1.2 S 7 9 4 5 1012.3 1012.3 0.0
21/10:30pm 13.1 11.8 11.2 88 1.0 S 9 13 5 7 1012.4 1012.4 0.0
21/10:00pm 13.2 11.9 11.4 89 1.0 S 9 13 5 7 1012.2 1012.2 0.0
21/09:30pm 13.0 11.4 11.6 91 0.7 S 11 15 6 8 1011.9 1011.9 0.0
21/09:00pm 12.9 10.8 11.3 90 0.8 S 13 20 7 11 1011.5 1011.6 0.0
21/08:30pm 13.3 10.5 11.5 89 1.0 S 17 24 9 13 1011.1 1011.2 0.0
21/08:00pm 13.5 9.5 11.7 89 1.0 SSW 24 32 13 17 1010.4 1010.5 0.0
21/07:30pm 13.8 10.5 11.7 87 1.1 S 20 28 11 15 1009.9 1010.0 0.0
21/07:00pm 14.2 11.0 11.2 82 1.6 SSE 19 26 10 14 1009.4 1009.5 0.0
21/06:30pm 15.8 11.7 8.8 63 3.6 SE 20 35 11 19 1008.8 1008.9 0.0
21/06:27pm 16.7 12.7 8.4 58 4.2 SSE 19 35 10 19 1008.8 1008.9 0.0
21/06:00pm 21.8 17.2 3.9 31 8.7 WSW 17 22 9 12 1007.9 1007.9 0.0
21/05:30pm 22.2 17.5 3.3 29 9.1 W 17 26 9 14 1007.6 1007.6 0.0
21/05:00pm 22.5 18.6 5.4 33 8.6 NW 15 22 8 12 1007.2 1007.2 0.0
21/04:30pm 22.9 17.7 5.3 32 8.8 N 22 32 12 17 1006.9 1006.9 0.0
21/04:00pm 23.4 17.4 5.3 31 9.1 N 26 37 14 20 1006.8 1006.8 0.0
21/03:30pm 23.5 16.9 5.9 32 8.9 NNW 30 43 16 23 1007.0 1007.0 0.0
21/03:00pm 23.1 15.9 5.1 31 9.0 N 32 52 17 28 1007.1 1007.1 0.0
21/02:47pm 23.3 16.5 5.2 31 9.1 N 30 48 16 26 1007.1 1007.1 0.0
21/02:30pm 22.2 14.8 5.2 33 8.5 NNW 33 50 18 27 1007.2 1007.2 0.0
21/02:00pm 21.4 13.9 4.5 33 8.3 NNW 33 52 18 28 1007.2 1007.2 0.0
21/01:30pm 22.8 14.9 4.3 30 9.1 NNW 35 54 19 29 1007.7 1007.7 0.0
21/01:04pm 22.9 15.8 3.4 28 9.4 N 30 48 16 26 1007.8 1007.8 0.0
21/01:00pm 22.8 16.3 4.8 31 8.9 N 28 41 15 22 1007.9 1007.9 0.0
21/12:30pm 20.8 14.1 5.6 37 7.5 N 30 46 16 25 1008.2 1008.3 0.0
21/12:00pm 21.1 14.0 5.5 36 7.8 N 32 43 17 23 1009.1 1009.2 0.0
21/11:48am 20.0 13.2 4.9 37 7.4 N 30 48 16 26 1009.3 1009.4 0.0
21/11:30am 18.9 11.7 6.1 43 6.3 NNE 33 48 18 26 1009.7 1009.8 0.0
21/11:00am 17.3 11.0 5.9 47 5.6 NNE 28 41 15 22 1010.1 1010.2 0.0
21/10:30am 15.7 9.3 5.3 50 4.9 N 28 46 15 25 1011.2 1011.3 0.0
21/10:08am 14.6 7.8 5.1 53 4.5 N 30 48 16 26 1010.7 1010.8 0.0
21/10:00am 14.3 7.5 4.9 53 4.4 N 30 44 16 24 1010.8 1010.9 0.0
21/09:30am 13.8 7.6 4.4 53 4.3 N 26 43 14 23 1011.1 1011.2 0.0
21/09:07am 13.8 6.4 4.1 52 4.4 NNE 32 50 17 27 1010.6 1010.7 0.0
21/09:00am 13.8 6.3 4.4 53 4.3 N 33 46 18 25 1010.8 1010.9 0.0
21/08:41am 13.8 7.2 4.1 52 4.4 N 28 46 15 25 1011.2 1011.3 0.0
21/08:30am 13.6 7.4 4.2 53 4.3 NNE 26 39 14 21 1011.9 1011.9 0.0
21/08:00am 13.4 6.8 4.3 54 4.2 NNE 28 41 15 22 1012.5 1012.5 0.0
21/07:30am 13.0 8.0 4.4 56 3.9 NNE 20 28 11 15 1012.9 1012.9 0.0
21/07:00am 12.8 6.7 4.8 58 3.7 NNE 26 37 14 20 1012.7 1012.7 0.0
21/06:30am 13.1 7.0 4.8 57 3.8 NNE 26 37 14 20 1012.4 1012.4 0.0
21/06:07am 13.2 6.4 4.9 57 3.8 NNE 30 50 16 27 1012.0 1012.0 0.0
21/06:00am 13.0 6.5 4.9 58 3.7 NNE 28 41 15 22 1012.1 1012.1 0.0
21/05:30am 13.0 6.2 5.2 59 3.6 NNE 30 44 16 24 1012.4 1012.4 0.0
21/05:17am 13.0 6.2 5.2 59 3.6 NNE 30 48 16 26 1012.3 1012.3 0.0
21/05:00am 13.0 5.7 5.4 60 3.5 NNE 33 48 18 26 1012.2 1012.2 0.0
21/04:39am 13.2 6.5 5.4 59 3.6 NNE 30 48 16 26 1012.2 1012.2 0.0
21/04:30am 13.2 6.1 5.4 59 3.6 NNE 32 48 17 26 1012.1 1012.1 0.0
21/04:17am 13.3 6.6 5.5 59 3.7 N 30 48 16 26 1012.1 1012.1 0.0
21/04:00am 13.3 6.2 5.5 59 3.7 N 32 43 17 23 1012.0 1012.0 0.0
21/03:48am 13.4 7.0 5.3 58 3.8 N 28 46 15 25 1011.9 1011.9 0.0
21/03:30am 13.4 7.0 5.3 58 3.8 N 28 43 15 23 1012.0 1012.0 0.0
21/03:00am 13.3 7.7 5.5 59 3.7 N 24 39 13 21 1012.3 1012.3 0.0
21/02:30am 13.2 6.9 5.6 60 3.6 NNE 28 46 15 25 1012.2 1012.2 0.0
21/02:28am 13.2 6.9 5.6 60 3.6 NNE 28 46 15 25 1012.2 1012.2 0.0
21/02:00am 12.6 7.0 5.5 62 3.3 NNE 24 37 13 20 1012.7 1012.7 0.0
21/01:30am 12.7 6.8 5.6 62 3.3 NNE 26 35 14 19 1013.2 1013.2 0.0
21/01:00am 12.4 7.6 5.6 63 3.2 NNE 20 30 11 16 1013.8 1013.8 0.0

Other Formats:

Comma delimited format used in spreadsheet applications
http://www.bom.gov.au/fwo/IDV60801/IDV60801.94865.axf

JavaScript Object Notation format (JSON) in row-major order
http://www.bom.gov.au/fwo/IDV60801/IDV60801.94865.json